createdAt,value
2019-05-19T00:02:26.900Z,17.64
2019-05-19T00:04:58.215Z,17.63
2019-05-19T00:07:29.654Z,17.63
2019-05-19T00:10:01.287Z,17.67
2019-05-19T00:12:32.738Z,17.65
2019-05-19T00:15:05.415Z,17.66
2019-05-19T00:17:38.008Z,17.69
2019-05-19T00:20:09.562Z,17.62
2019-05-19T00:22:41.256Z,17.56
2019-05-19T00:25:12.668Z,17.49
2019-05-19T00:27:46.958Z,17.44
2019-05-19T00:30:18.418Z,17.37
2019-05-19T00:32:49.918Z,17.31
2019-05-19T00:35:21.242Z,17.30
2019-05-19T00:37:52.653Z,17.30
2019-05-19T00:40:24.114Z,17.27
2019-05-19T00:42:55.550Z,17.23
2019-05-19T00:45:27.143Z,17.20
2019-05-19T00:47:58.505Z,17.24
2019-05-19T00:50:29.952Z,17.20
2019-05-19T00:53:01.538Z,17.14
2019-05-19T00:55:32.953Z,17.11
2019-05-19T00:58:05.258Z,16.98
2019-05-19T01:00:36.661Z,16.97
2019-05-19T01:03:07.917Z,16.99
2019-05-19T01:05:39.171Z,16.96
2019-05-19T01:08:10.450Z,16.89
2019-05-19T01:10:41.978Z,16.91
2019-05-19T01:13:13.408Z,16.92
2019-05-19T01:15:44.779Z,17.02
2019-05-19T01:18:16.074Z,16.91
2019-05-19T01:20:47.783Z,16.92
2019-05-19T01:23:19.178Z,16.92
2019-05-19T01:25:50.409Z,16.87
2019-05-19T01:28:21.873Z,16.83
2019-05-19T01:30:53.330Z,16.76
2019-05-19T01:33:24.630Z,16.72
2019-05-19T01:35:55.869Z,16.68
2019-05-19T01:38:27.249Z,16.64
2019-05-19T01:40:58.587Z,16.61
2019-05-19T01:43:30.044Z,16.61
2019-05-19T01:46:01.288Z,16.63
2019-05-19T01:48:32.842Z,16.62
2019-05-19T01:51:04.168Z,16.61
2019-05-19T01:53:35.464Z,16.60
2019-05-19T01:56:07.130Z,16.53
2019-05-19T01:58:38.530Z,16.62
2019-05-19T02:01:10.192Z,16.58
2019-05-19T02:03:41.631Z,16.55
2019-05-19T02:06:12.963Z,16.50
2019-05-19T02:08:44.321Z,16.49
2019-05-19T02:11:15.772Z,16.36
2019-05-19T02:13:47.071Z,16.37
2019-05-19T02:16:18.531Z,16.33
2019-05-19T02:18:50.043Z,16.23
2019-05-19T02:21:21.257Z,16.20
2019-05-19T02:23:53.720Z,16.31
2019-05-19T02:26:25.857Z,16.35
2019-05-19T02:28:57.269Z,16.30
2019-05-19T02:31:28.511Z,16.40
2019-05-19T02:34:00.196Z,16.56
2019-05-19T02:36:31.597Z,16.87
2019-05-19T02:39:03.888Z,16.84
2019-05-19T02:41:37.463Z,16.82
2019-05-19T02:44:09.870Z,17.00
2019-05-19T02:46:41.629Z,17.11
2019-05-19T02:49:13.502Z,16.90
2019-05-19T02:51:47.137Z,17.16
2019-05-19T02:54:20.063Z,17.26
2019-05-19T02:56:52.174Z,17.41
2019-05-19T02:59:24.925Z,17.65
2019-05-19T03:02:03.848Z,17.75
2019-05-19T03:04:35.361Z,17.58
2019-05-19T03:07:06.753Z,17.77
2019-05-19T03:09:38.122Z,17.95
2019-05-19T03:12:09.435Z,18.03
2019-05-19T03:14:40.931Z,17.96
2019-05-19T03:17:12.373Z,18.16
2019-05-19T03:19:43.877Z,18.31
2019-05-19T03:22:15.262Z,18.53
2019-05-19T03:24:46.628Z,18.55
2019-05-19T03:27:17.880Z,18.62
2019-05-19T03:29:51.680Z,18.63
2019-05-19T03:32:27.536Z,18.92
2019-05-19T03:34:59.917Z,18.71
2019-05-19T03:37:31.355Z,19.01
2019-05-19T03:40:04.371Z,19.21
2019-05-19T03:42:35.589Z,18.95
2019-05-19T03:45:07.099Z,19.10
2019-05-19T03:47:38.276Z,19.39
2019-05-19T03:50:09.571Z,19.45
2019-05-19T03:52:40.949Z,19.41
2019-05-19T03:55:12.547Z,19.53
2019-05-19T03:57:43.769Z,19.23
2019-05-19T04:00:15.860Z,19.19
2019-05-19T04:02:47.747Z,19.75
2019-05-19T04:05:19.259Z,20.13
2019-05-19T04:07:50.521Z,20.46
2019-05-19T04:10:22.012Z,20.52
2019-05-19T04:12:53.420Z,20.76
2019-05-19T04:15:24.889Z,20.60
2019-05-19T04:17:56.168Z,20.50
2019-05-19T04:20:28.491Z,20.68
2019-05-19T04:22:59.830Z,20.87
2019-05-19T04:25:31.189Z,20.83
2019-05-19T04:28:02.628Z,21.19
2019-05-19T04:30:34.268Z,21.09
2019-05-19T04:33:06.220Z,21.09
2019-05-19T04:35:37.512Z,21.54
2019-05-19T04:38:08.747Z,21.88
2019-05-19T04:40:40.127Z,21.28
2019-05-19T04:43:11.459Z,21.78
2019-05-19T04:45:42.727Z,21.60
2019-05-19T04:48:14.065Z,22.07
2019-05-19T04:50:45.619Z,21.69
2019-05-19T04:53:16.833Z,22.06
2019-05-19T04:55:48.201Z,22.43
2019-05-19T04:58:19.474Z,22.65
2019-05-19T05:00:50.880Z,22.78
2019-05-19T05:03:22.339Z,22.77
2019-05-19T05:05:53.643Z,22.70
2019-05-19T05:08:30.223Z,22.74
2019-05-19T05:10:58.143Z,22.91
2019-05-19T05:13:29.513Z,23.05
2019-05-19T05:16:00.894Z,22.98
2019-05-19T05:18:32.364Z,23.73
2019-05-19T05:21:03.805Z,23.96
2019-05-19T05:23:35.362Z,23.81
2019-05-19T05:26:06.973Z,23.59
2019-05-19T05:28:38.389Z,24.37
2019-05-19T05:31:09.777Z,24.40
2019-05-19T05:33:41.173Z,24.71
2019-05-19T05:36:12.592Z,24.36
2019-05-19T05:38:43.919Z,24.36
2019-05-19T05:41:15.251Z,25.82
2019-05-19T05:43:46.507Z,26.76
2019-05-19T05:46:17.859Z,26.52
2019-05-19T05:48:49.398Z,26.94
2019-05-19T05:51:20.688Z,26.48
2019-05-19T05:53:51.940Z,27.48
2019-05-19T05:56:23.294Z,27.68
2019-05-19T05:58:54.623Z,27.81
2019-05-19T06:01:25.914Z,29.10
2019-05-19T06:03:57.231Z,27.37
2019-05-19T06:06:28.535Z,28.28
2019-05-19T06:08:59.845Z,28.23
2019-05-19T06:11:31.243Z,28.00
2019-05-19T06:14:02.778Z,28.14
2019-05-19T06:16:34.274Z,28.21
2019-05-19T06:19:05.593Z,28.15
2019-05-19T06:21:36.988Z,27.37
2019-05-19T06:24:08.339Z,26.59
2019-05-19T06:26:39.676Z,26.37
2019-05-19T06:29:10.996Z,27.58
2019-05-19T06:31:42.344Z,27.16
2019-05-19T06:34:13.793Z,26.81
2019-05-19T06:36:45.140Z,26.67
2019-05-19T06:39:16.407Z,27.43
2019-05-19T06:41:47.799Z,28.20
2019-05-19T06:44:19.056Z,27.88
2019-05-19T06:46:52.050Z,27.47
2019-05-19T06:49:23.423Z,27.47
2019-05-19T06:51:54.777Z,27.81
2019-05-19T06:54:26.156Z,28.65
2019-05-19T06:56:57.468Z,27.19
2019-05-19T06:59:28.711Z,24.77
2019-05-19T07:02:00.100Z,23.58
2019-05-19T07:04:32.896Z,23.21
2019-05-19T07:07:04.263Z,23.07
2019-05-19T07:09:36.789Z,23.08
2019-05-19T07:12:08.445Z,23.07
2019-05-19T07:14:39.732Z,22.92
2019-05-19T07:17:11.043Z,23.17
2019-05-19T07:19:42.403Z,23.13
2019-05-19T07:22:13.735Z,23.21
2019-05-19T07:24:45.177Z,23.19
2019-05-19T07:27:16.439Z,23.18
2019-05-19T07:29:47.747Z,23.21
2019-05-19T07:32:19.096Z,23.02
2019-05-19T07:34:52.209Z,23.15
2019-05-19T07:37:23.623Z,23.25
2019-05-19T07:39:54.833Z,23.27
2019-05-19T07:42:27.200Z,23.19
2019-05-19T07:44:58.539Z,23.27
2019-05-19T07:47:29.832Z,23.45
2019-05-19T07:50:01.434Z,23.52
2019-05-19T07:52:33.895Z,23.55
2019-05-19T07:55:08.100Z,23.66
2019-05-19T07:57:39.393Z,23.52
2019-05-19T08:00:12.203Z,23.69
2019-05-19T08:02:43.565Z,23.68
2019-05-19T08:05:15.243Z,23.80
2019-05-19T08:07:46.635Z,23.86
2019-05-19T08:10:17.954Z,23.85
2019-05-19T08:12:49.308Z,23.79
2019-05-19T08:15:20.547Z,23.80
2019-05-19T08:17:51.873Z,23.85
2019-05-19T08:20:23.188Z,23.87
2019-05-19T08:22:54.520Z,23.96
2019-05-19T08:25:27.301Z,23.98
2019-05-19T08:28:07.323Z,24.04
2019-05-19T08:30:31.876Z,24.05
2019-05-19T08:33:03.348Z,24.03
2019-05-19T08:35:34.693Z,24.08
2019-05-19T08:38:06.041Z,23.94
2019-05-19T08:40:37.312Z,24.11
2019-05-19T08:43:08.615Z,24.04
2019-05-19T08:45:39.952Z,23.98
2019-05-19T08:48:11.412Z,23.90
2019-05-19T08:50:42.651Z,23.90
2019-05-19T08:53:14.118Z,23.94
2019-05-19T08:55:45.429Z,24.19
2019-05-19T08:58:16.797Z,24.18
2019-05-19T09:00:48.099Z,24.15
2019-05-19T09:03:19.376Z,24.26
2019-05-19T09:05:50.688Z,24.34
2019-05-19T09:08:21.976Z,24.29
2019-05-19T09:10:54.695Z,24.28
2019-05-19T09:13:25.944Z,24.41
2019-05-19T09:15:57.231Z,24.54
2019-05-19T09:18:28.565Z,24.59
2019-05-19T09:20:59.843Z,24.34
2019-05-19T09:23:31.197Z,24.18
2019-05-19T09:26:02.414Z,24.31
2019-05-19T09:28:33.969Z,24.27
2019-05-19T09:31:05.419Z,24.59
2019-05-19T09:33:36.742Z,24.71
2019-05-19T09:36:08.243Z,24.62
2019-05-19T09:38:39.511Z,24.42
2019-05-19T09:41:10.875Z,24.49
2019-05-19T09:43:42.248Z,24.45
2019-05-19T09:46:14.055Z,24.60
2019-05-19T09:48:46.566Z,24.76
2019-05-19T09:51:17.883Z,24.86
2019-05-19T09:53:49.290Z,24.96
2019-05-19T09:56:20.665Z,24.99
2019-05-19T09:58:52.061Z,24.86
2019-05-19T10:01:23.355Z,24.85
2019-05-19T10:03:54.864Z,24.93
2019-05-19T10:06:26.019Z,24.89
2019-05-19T10:08:59.221Z,24.86
2019-05-19T10:11:44.347Z,25.01
2019-05-19T10:14:19.291Z,24.90
2019-05-19T10:16:50.540Z,25.01
2019-05-19T10:19:21.867Z,25.07
2019-05-19T10:21:53.372Z,25.13
2019-05-19T10:24:24.668Z,25.29
2019-05-19T10:26:55.983Z,25.39
2019-05-19T10:29:27.285Z,25.13
2019-05-19T10:31:58.515Z,24.96
2019-05-19T10:34:30.051Z,25.02
2019-05-19T10:37:01.589Z,25.04
2019-05-19T10:39:32.947Z,25.18
2019-05-19T10:42:04.350Z,25.30
2019-05-19T10:44:35.663Z,25.48
2019-05-19T10:47:06.971Z,25.45
2019-05-19T10:49:38.229Z,25.38
2019-05-19T10:52:09.445Z,25.43
2019-05-19T10:54:40.790Z,25.54
2019-05-19T10:57:13.049Z,25.69
2019-05-19T10:59:44.456Z,25.73
2019-05-19T11:02:15.763Z,25.63
2019-05-19T11:04:47.036Z,25.57
2019-05-19T11:07:18.320Z,25.66
2019-05-19T11:09:49.930Z,25.75
2019-05-19T11:12:22.414Z,25.86
2019-05-19T11:14:53.699Z,25.83
2019-05-19T11:17:25.198Z,25.94
2019-05-19T11:19:56.528Z,25.87
2019-05-19T11:22:27.880Z,25.86
2019-05-19T11:24:59.267Z,25.96
2019-05-19T11:27:30.590Z,25.93
2019-05-19T11:30:01.953Z,26.10
2019-05-19T11:32:33.374Z,26.04
2019-05-19T11:35:06.573Z,26.06
2019-05-19T11:37:37.797Z,26.10
2019-05-19T11:40:09.248Z,26.02
2019-05-19T11:42:40.561Z,26.08
2019-05-19T11:45:12.929Z,26.16
2019-05-19T11:47:44.218Z,26.25
2019-05-19T11:50:15.611Z,26.08
2019-05-19T11:52:46.923Z,26.12
2019-05-19T11:55:18.227Z,26.09
2019-05-19T11:57:49.487Z,26.22
2019-05-19T12:00:22.259Z,26.23
2019-05-19T12:02:53.563Z,26.18
2019-05-19T12:05:25.071Z,26.19
2019-05-19T12:07:56.497Z,26.24
2019-05-19T12:10:27.835Z,26.34
2019-05-19T12:12:59.444Z,26.49
2019-05-19T12:15:30.894Z,26.48
2019-05-19T12:18:02.377Z,26.42
2019-05-19T12:20:33.706Z,26.43
2019-05-19T12:23:05.315Z,26.62
2019-05-19T12:25:36.790Z,26.62
2019-05-19T12:28:08.054Z,26.39
2019-05-19T12:30:39.395Z,26.27
2019-05-19T12:33:10.687Z,26.26
2019-05-19T12:35:41.996Z,26.45
2019-05-19T12:38:13.301Z,26.58
2019-05-19T12:40:44.602Z,26.68
2019-05-19T12:43:16.032Z,26.62
2019-05-19T12:45:47.606Z,26.51
2019-05-19T12:48:19.110Z,26.48
2019-05-19T12:50:50.461Z,26.51
2019-05-19T12:53:21.852Z,26.50
2019-05-19T12:55:53.258Z,26.51
2019-05-19T12:58:24.609Z,26.56
2019-05-19T13:00:55.957Z,26.54
2019-05-19T13:03:27.195Z,26.63
2019-05-19T13:05:58.537Z,26.55
2019-05-19T13:08:30.019Z,26.61
2019-05-19T13:11:02.394Z,26.63
2019-05-19T13:13:33.674Z,26.73
2019-05-19T13:16:05.508Z,26.73
2019-05-19T13:18:36.899Z,26.66
2019-05-19T13:21:08.322Z,26.58
2019-05-19T13:23:39.552Z,26.59
2019-05-19T13:26:11.035Z,26.62
2019-05-19T13:28:42.306Z,26.66
2019-05-19T13:31:13.613Z,26.65
2019-05-19T13:33:45.016Z,26.69
2019-05-19T13:36:16.410Z,26.64
2019-05-19T13:38:47.662Z,26.51
2019-05-19T13:41:18.988Z,26.52
2019-05-19T13:43:50.307Z,26.59
2019-05-19T13:46:21.702Z,26.67
2019-05-19T13:48:52.947Z,26.59
2019-05-19T13:51:24.274Z,26.56
2019-05-19T13:53:56.075Z,26.56
2019-05-19T13:56:27.319Z,26.53
2019-05-19T13:58:58.618Z,26.53
2019-05-19T14:01:29.941Z,26.66
2019-05-19T14:04:01.244Z,26.71
2019-05-19T14:06:32.697Z,26.62
2019-05-19T14:09:05.121Z,26.64
2019-05-19T14:11:36.584Z,26.69
2019-05-19T14:14:07.830Z,26.66
2019-05-19T14:16:39.220Z,26.61
2019-05-19T14:19:10.589Z,26.63
2019-05-19T14:21:41.845Z,26.69
2019-05-19T14:24:13.063Z,26.70
2019-05-19T14:26:44.392Z,26.58
2019-05-19T14:29:15.624Z,26.61
2019-05-19T14:31:46.903Z,26.58
2019-05-19T14:34:18.186Z,26.61
2019-05-19T14:36:49.599Z,26.67
2019-05-19T14:39:20.952Z,26.63
2019-05-19T14:41:54.010Z,26.59
2019-05-19T14:44:25.326Z,26.63
2019-05-19T14:46:56.606Z,26.63
2019-05-19T14:49:29.503Z,26.73
2019-05-19T14:52:00.929Z,26.70
2019-05-19T14:54:32.249Z,26.62
2019-05-19T14:57:03.524Z,26.59
2019-05-19T14:59:34.927Z,26.60
2019-05-19T15:02:06.344Z,26.51
2019-05-19T15:04:37.692Z,26.53
2019-05-19T15:07:09.010Z,26.51
2019-05-19T15:09:40.234Z,26.45
2019-05-19T15:12:11.540Z,26.40
2019-05-19T15:14:42.801Z,26.31
2019-05-19T15:17:14.092Z,26.28
2019-05-19T15:19:46.394Z,26.22
2019-05-19T15:22:17.671Z,26.28
2019-05-19T15:24:49.159Z,26.33
2019-05-19T15:27:20.371Z,26.31
2019-05-19T15:29:51.607Z,26.33
2019-05-19T15:32:22.865Z,26.29
2019-05-19T15:34:54.162Z,26.32
2019-05-19T15:37:25.518Z,26.30
2019-05-19T15:39:57.655Z,26.23
2019-05-19T15:42:28.976Z,26.23
2019-05-19T15:45:00.273Z,26.06
2019-05-19T15:47:31.553Z,25.98
2019-05-19T15:50:02.851Z,25.95
2019-05-19T15:52:34.184Z,25.90
2019-05-19T15:55:06.798Z,25.83
2019-05-19T15:57:38.269Z,25.77
2019-05-19T16:00:10.129Z,25.79
2019-05-19T16:02:41.505Z,25.73
2019-05-19T16:05:13.128Z,25.72
2019-05-19T16:07:44.458Z,25.67
2019-05-19T16:10:17.328Z,25.66
2019-05-19T16:12:48.660Z,25.61
2019-05-19T16:15:20.129Z,25.54
2019-05-19T16:17:51.594Z,25.49
2019-05-19T16:20:22.907Z,25.51
2019-05-19T16:22:54.164Z,25.39
2019-05-19T16:25:25.411Z,25.37
2019-05-19T16:27:56.731Z,25.29
2019-05-19T16:30:28.166Z,25.20
2019-05-19T16:32:59.550Z,25.17
2019-05-19T16:35:31.037Z,25.17
2019-05-19T16:38:02.429Z,25.10
2019-05-19T16:40:33.810Z,25.06
2019-05-19T16:43:05.267Z,25.02
2019-05-19T16:45:36.701Z,25.00
2019-05-19T16:48:08.237Z,24.89
2019-05-19T16:50:40.821Z,24.85
2019-05-19T16:53:12.408Z,24.75
2019-05-19T16:55:44.173Z,24.72
2019-05-19T16:58:21.097Z,24.67
2019-05-19T17:00:49.401Z,24.62
2019-05-19T17:03:20.873Z,24.59
2019-05-19T17:05:52.309Z,24.52
2019-05-19T17:08:23.599Z,24.47
2019-05-19T17:10:55.236Z,24.44
2019-05-19T17:13:26.606Z,24.39
2019-05-19T17:15:57.926Z,24.33
2019-05-19T17:18:29.309Z,24.25
2019-05-19T17:21:00.724Z,24.11
2019-05-19T17:23:32.142Z,24.12
2019-05-19T17:26:03.555Z,24.08
2019-05-19T17:28:35.006Z,23.99
2019-05-19T17:31:07.767Z,23.87
2019-05-19T17:33:40.495Z,23.86
2019-05-19T17:36:12.609Z,23.82
2019-05-19T17:38:44.006Z,23.72
2019-05-19T17:41:15.538Z,23.65
2019-05-19T17:43:47.904Z,23.55
2019-05-19T17:46:19.151Z,23.60
2019-05-19T17:48:50.889Z,23.50
2019-05-19T17:51:22.330Z,23.41
2019-05-19T17:53:55.262Z,23.35
2019-05-19T17:56:27.467Z,23.28
2019-05-19T17:58:59.505Z,23.23
2019-05-19T18:01:30.918Z,23.16
2019-05-19T18:04:02.387Z,23.13
2019-05-19T18:06:33.822Z,23.03
2019-05-19T18:09:05.914Z,23.02
2019-05-19T18:11:38.461Z,23.06
2019-05-19T18:14:10.799Z,22.98
2019-05-19T18:16:42.161Z,22.87
2019-05-19T18:19:13.575Z,22.78
2019-05-19T18:21:45.036Z,22.69
2019-05-19T18:24:16.388Z,22.56
2019-05-19T18:26:47.614Z,22.43
2019-05-19T18:29:30.489Z,22.39
2019-05-19T18:31:52.204Z,22.39
2019-05-19T18:34:23.784Z,22.31
2019-05-19T18:36:55.153Z,22.33
2019-05-19T18:39:26.629Z,22.26
2019-05-19T18:41:59.577Z,22.21
2019-05-19T18:44:31.289Z,22.11
2019-05-19T18:47:02.636Z,22.02
2019-05-19T18:49:34.032Z,21.90
2019-05-19T18:52:05.460Z,21.89
2019-05-19T18:54:36.973Z,21.80
2019-05-19T18:57:08.399Z,21.77
2019-05-19T18:59:47.323Z,21.64
2019-05-19T19:02:14.806Z,21.56
2019-05-19T19:04:46.221Z,21.52
2019-05-19T19:07:17.543Z,21.77
2019-05-19T19:09:48.976Z,22.03
2019-05-19T19:12:21.942Z,22.12
2019-05-19T19:14:53.327Z,22.19
2019-05-19T19:17:24.580Z,22.25
2019-05-19T19:19:55.957Z,22.16
2019-05-19T19:22:28.753Z,21.90
2019-05-19T19:25:00.255Z,21.69
2019-05-19T19:27:31.847Z,21.68
2019-05-19T19:30:04.206Z,21.62
2019-05-19T19:32:35.785Z,21.64
2019-05-19T19:35:08.660Z,21.54
2019-05-19T19:37:39.940Z,21.53
2019-05-19T19:40:13.099Z,21.48
2019-05-19T19:42:44.523Z,21.44
2019-05-19T19:45:15.862Z,21.34
2019-05-19T19:47:47.107Z,21.41
2019-05-19T19:50:18.433Z,21.27
2019-05-19T19:52:49.837Z,21.16
2019-05-19T19:55:21.121Z,21.14
2019-05-19T19:57:52.402Z,21.16
2019-05-19T20:00:38.239Z,21.21
2019-05-19T20:03:09.654Z,21.16
2019-05-19T20:05:45.144Z,21.06
2019-05-19T20:08:17.534Z,21.15
2019-05-19T20:10:48.987Z,21.08
2019-05-19T20:13:20.377Z,21.09
2019-05-19T20:15:51.771Z,20.91
2019-05-19T20:18:23.055Z,20.80
2019-05-19T20:20:54.441Z,20.83
2019-05-19T20:23:25.931Z,20.79
2019-05-19T20:25:57.190Z,20.86
2019-05-19T20:28:28.562Z,20.80
2019-05-19T20:30:59.875Z,20.84
2019-05-19T20:33:31.356Z,20.78
2019-05-19T20:36:03.717Z,20.72
2019-05-19T20:38:35.204Z,20.70
2019-05-19T20:41:06.772Z,20.68
2019-05-19T20:43:38.094Z,20.66
2019-05-19T20:46:09.503Z,20.67
2019-05-19T20:48:40.930Z,20.63
2019-05-19T20:51:12.324Z,20.64
2019-05-19T20:53:43.646Z,20.57
2019-05-19T20:56:15.018Z,20.49
2019-05-19T20:58:46.442Z,20.36
2019-05-19T21:01:17.899Z,20.33
2019-05-19T21:03:49.329Z,20.23
2019-05-19T21:06:20.794Z,20.20
2019-05-19T21:08:52.063Z,20.22
2019-05-19T21:11:23.388Z,20.21
2019-05-19T21:13:54.636Z,20.21
2019-05-19T21:16:25.950Z,20.17
2019-05-19T21:19:10.814Z,20.14
2019-05-19T21:21:42.138Z,20.06
2019-05-19T21:24:13.449Z,20.04
2019-05-19T21:26:44.819Z,19.97
2019-05-19T21:29:17.210Z,20.04
2019-05-19T21:31:48.491Z,19.99
2019-05-19T21:34:19.781Z,19.99
2019-05-19T21:36:51.080Z,19.97
2019-05-19T21:39:22.458Z,20.02
2019-05-19T21:41:53.710Z,19.94
2019-05-19T21:44:25.122Z,19.89
2019-05-19T21:46:56.491Z,19.92
2019-05-19T21:49:27.636Z,19.88
2019-05-19T21:51:58.944Z,19.85
2019-05-19T21:54:30.271Z,19.81
2019-05-19T21:57:01.740Z,19.80
2019-05-19T21:59:33.020Z,19.82
2019-05-19T22:02:05.591Z,19.75
2019-05-19T22:04:36.990Z,19.69
2019-05-19T22:07:12.952Z,19.70
2019-05-19T22:09:44.151Z,19.72
2019-05-19T22:12:15.432Z,19.74
2019-05-19T22:14:46.761Z,19.67
2019-05-19T22:17:18.186Z,19.64
2019-05-19T22:19:49.411Z,19.56
2019-05-19T22:22:20.785Z,19.53
2019-05-19T22:24:52.096Z,19.47
2019-05-19T22:27:23.385Z,19.41
2019-05-19T22:29:54.721Z,19.36
2019-05-19T22:32:26.171Z,19.32
2019-05-19T22:34:57.645Z,19.30
2019-05-19T22:37:29.176Z,19.25
2019-05-19T22:40:00.595Z,19.15
2019-05-19T22:42:31.961Z,19.20
2019-05-19T22:45:04.036Z,19.18
2019-05-19T22:47:35.405Z,19.20
2019-05-19T22:50:08.350Z,19.20
2019-05-19T22:52:39.645Z,19.10
2019-05-19T22:55:10.840Z,19.01
2019-05-19T22:57:42.149Z,19.09
2019-05-19T23:00:14.920Z,19.03
2019-05-19T23:02:48.176Z,19.00
2019-05-19T23:05:19.500Z,18.99
2019-05-19T23:07:50.818Z,18.97
2019-05-19T23:10:22.329Z,18.96
2019-05-19T23:12:53.626Z,18.96
2019-05-19T23:15:25.077Z,18.89
2019-05-19T23:17:56.406Z,18.85
2019-05-19T23:20:27.628Z,18.80
2019-05-19T23:22:58.895Z,18.77
2019-05-19T23:25:30.283Z,18.77
2019-05-19T23:28:01.640Z,18.76
2019-05-19T23:30:32.923Z,18.76
2019-05-19T23:33:04.441Z,18.73
2019-05-19T23:35:35.711Z,18.64
2019-05-19T23:38:07.063Z,18.63
2019-05-19T23:40:38.294Z,18.64
2019-05-19T23:43:09.795Z,18.54
2019-05-19T23:45:40.991Z,18.49
2019-05-19T23:48:12.348Z,18.41
2019-05-19T23:50:44.551Z,18.41
2019-05-19T23:53:15.839Z,18.41
2019-05-19T23:55:47.117Z,18.35
2019-05-19T23:58:18.423Z,18.32
